Time;durP1;ratioP1;P1;durP2;ratioP2;P2;SDS_P1;SDS_P2;PMS_P1;PMS_P2;Temp;Humidity;BMP_temperature;BMP_pressure;BME280_temperature;BME280_humidity;BME280_pressure;Samples;Min_cycle;Max_cycle;Signal;HPM_P1;HPM_P2
2022/04/02 00:02:11;;;;;;;16.30;3.57;;;;;;;;;;5013480;28;20196;-85
2022/04/02 00:04:39;;;;;;;13.70;4.17;;;;;;;;;;5013745;28;20210;-85
2022/04/02 00:07:06;;;;;;;11.47;2.97;;;;;;;;;;5013462;28;20210;-85
2022/04/02 00:09:34;;;;;;;9.40;4.40;;;;;;;;;;5013120;28;20227;-85
2022/04/02 00:12:02;;;;;;;20.17;4.37;;;;;;;;;;5013273;28;20239;-85
2022/04/02 00:14:29;;;;;;;15.53;4.20;;;;;;;;;;5013706;28;20199;-85
2022/04/02 00:16:56;;;;;;;10.27;4.17;;;;;;;;;;5013652;28;20297;-85
2022/04/02 00:19:24;;;;;;;12.57;3.83;;;;;;;;;;5013199;28;20250;-85
2022/04/02 00:21:51;;;;;;;15.67;4.03;;;;;;;;;;5013360;28;20221;-85
2022/04/02 00:24:18;;;;;;;31.57;6.13;;;;;;;;;;5013094;28;20211;-85
2022/04/02 00:26:47;;;;;;;20.97;5.47;;;;;;;;;;5013399;28;20646;-85
2022/04/02 00:29:14;;;;;;;24.40;7.40;;;;;;;;;;5012945;28;20219;-85
2022/04/02 00:31:43;;;;;;;21.13;5.67;;;;;;;;;;5012863;28;20212;-85
2022/04/02 00:34:10;;;;;;;21.87;6.90;;;;;;;;;;5012971;28;20207;-85
2022/04/02 00:36:38;;;;;;;21.43;6.20;;;;;;;;;;5012941;28;20188;-85
2022/04/02 00:39:07;;;;;;;18.37;6.27;;;;;;;;;;5012700;28;20195;-85
2022/04/02 00:41:34;;;;;;;17.33;5.77;;;;;;;;;;5012793;28;20254;-85
2022/04/02 00:44:11;;;;;;;9.23;3.47;;;;;;;;;;5012350;28;20200;-84
2022/04/02 00:46:40;;;;;;;19.80;5.90;;;;;;;;;;5012837;28;20182;-85
2022/04/02 00:49:08;;;;;;;23.73;6.97;;;;;;;;;;5012508;28;20313;-85
2022/04/02 00:51:41;;;;;;;25.13;8.03;;;;;;;;;;5012473;28;20271;-85
2022/04/02 00:54:09;;;;;;;18.07;6.70;;;;;;;;;;5012495;28;20245;-85
2022/04/02 00:56:37;;;;;;;19.87;7.73;;;;;;;;;;5012624;28;20202;-85
2022/04/02 00:59:06;;;;;;;18.30;7.03;;;;;;;;;;5012441;28;20203;-85
2022/04/02 01:01:34;;;;;;;34.30;8.87;;;;;;;;;;5012849;28;20206;-85
2022/04/02 01:04:01;;;;;;;23.63;7.53;;;;;;;;;;5012519;28;20727;-85
2022/04/02 01:06:28;;;;;;;25.23;6.90;;;;;;;;;;5012740;28;20203;-85
2022/04/02 01:08:56;;;;;;;27.33;9.00;;;;;;;;;;5012262;28;20230;-85
2022/04/02 01:11:24;;;;;;;28.27;8.43;;;;;;;;;;5012325;28;20290;-85
2022/04/02 01:13:51;;;;;;;31.73;7.07;;;;;;;;;;5012330;28;20278;-84
2022/04/02 01:16:20;;;;;;;21.30;7.47;;;;;;;;;;5012538;28;20761;-85
2022/04/02 01:18:47;;;;;;;31.07;8.43;;;;;;;;;;5012234;28;20581;-85
2022/04/02 01:21:14;;;;;;;25.47;8.37;;;;;;;;;;5012431;28;20204;-85
2022/04/02 01:23:43;;;;;;;18.37;6.67;;;;;;;;;;5012447;28;20606;-85
2022/04/02 01:26:10;;;;;;;31.83;8.03;;;;;;;;;;5012222;28;20695;-85
2022/04/02 01:28:37;;;;;;;27.33;7.97;;;;;;;;;;5012213;28;20678;-85
2022/04/02 01:31:06;;;;;;;29.53;8.20;;;;;;;;;;5012265;28;20205;-85
2022/04/02 01:33:33;;;;;;;26.73;8.33;;;;;;;;;;5012131;28;20257;-85
2022/04/02 01:36:02;;;;;;;23.97;7.67;;;;;;;;;;5011993;28;20322;-85
2022/04/02 01:38:29;;;;;;;19.30;7.40;;;;;;;;;;5012402;28;20287;-85
2022/04/02 01:41:00;;;;;;;27.77;7.73;;;;;;;;;;5012028;28;20192;-85
2022/04/02 01:43:27;;;;;;;24.73;8.27;;;;;;;;;;5012127;28;20195;-85
2022/04/02 01:45:55;;;;;;;26.93;8.03;;;;;;;;;;5012546;28;20286;-85
2022/04/02 01:48:22;;;;;;;26.37;8.53;;;;;;;;;;5012363;28;20219;-85
2022/04/02 01:50:50;;;;;;;24.07;8.33;;;;;;;;;;5011741;28;20234;-85
2022/04/02 01:53:17;;;;;;;18.37;7.30;;;;;;;;;;5012036;28;20290;-86
2022/04/02 01:55:44;;;;;;;16.83;7.53;;;;;;;;;;5011985;28;20199;-85
2022/04/02 01:58:14;;;;;;;21.37;6.87;;;;;;;;;;5011917;28;20195;-85
2022/04/02 02:00:41;;;;;;;19.70;6.70;;;;;;;;;;5011948;28;20205;-86
2022/04/02 02:03:09;;;;;;;19.07;6.17;;;;;;;;;;5011934;28;20199;-86
2022/04/02 02:05:36;;;;;;;24.77;7.10;;;;;;;;;;5012234;28;20203;-85
2022/04/02 02:08:04;;;;;;;19.63;6.97;;;;;;;;;;5011939;28;20203;-85
2022/04/02 02:10:32;;;;;;;25.80;7.57;;;;;;;;;;5011851;28;20235;-86
2022/04/02 02:12:59;;;;;;;22.70;7.80;;;;;;;;;;5011969;28;20199;-86
2022/04/02 02:15:28;;;;;;;16.60;6.87;;;;;;;;;;5011771;28;20200;-86
2022/04/02 02:17:55;;;;;;;18.70;8.73;;;;;;;;;;5012112;28;20637;-85
2022/04/02 02:20:23;;;;;;;23.30;7.93;;;;;;;;;;5011638;28;20286;-85
2022/04/02 02:22:51;;;;;;;25.07;8.20;;;;;;;;;;5014319;28;20230;-86
2022/04/02 02:25:19;;;;;;;19.13;7.70;;;;;;;;;;5015309;28;20235;-85
2022/04/02 02:27:47;;;;;;;25.90;8.27;;;;;;;;;;5015557;28;20208;-85
2022/04/02 02:30:15;;;;;;;25.27;7.87;;;;;;;;;;5015403;28;20576;-85
2022/04/02 02:32:44;;;;;;;22.30;8.30;;;;;;;;;;5015373;28;20199;-85
2022/04/02 02:38:08;;;;;;;19.87;7.03;;;;;;;;;;5015132;28;20190;-85
2022/04/02 02:40:36;;;;;;;21.80;8.13;;;;;;;;;;5015074;28;20665;-85
2022/04/02 02:43:03;;;;;;;18.13;6.10;;;;;;;;;;5015042;28;20294;-85
2022/04/02 02:45:32;;;;;;;15.40;6.27;;;;;;;;;;5014895;28;20294;-85
2022/04/02 02:48:01;;;;;;;17.80;5.13;;;;;;;;;;5014771;28;20687;-85
2022/04/02 02:50:29;;;;;;;15.80;5.33;;;;;;;;;;5014724;28;20230;-85
2022/04/02 02:52:56;;;;;;;21.03;6.23;;;;;;;;;;5015023;28;20585;-85
2022/04/02 02:55:23;;;;;;;16.63;4.93;;;;;;;;;;5014786;28;20294;-85
2022/04/02 02:57:51;;;;;;;17.13;5.43;;;;;;;;;;5014582;28;20211;-85
2022/04/02 03:00:19;;;;;;;15.93;4.50;;;;;;;;;;5014656;28;20287;-85
2022/04/02 03:02:46;;;;;;;19.30;5.50;;;;;;;;;;5014555;28;20195;-85
2022/04/02 03:05:17;;;;;;;11.43;5.20;;;;;;;;;;5014492;28;20196;-87
2022/04/02 03:07:49;;;;;;;16.80;4.83;;;;;;;;;;5018463;28;20230;-87
2022/04/02 03:10:18;;;;;;;16.93;6.50;;;;;;;;;;5034894;28;20264;-86
2022/04/02 03:12:45;;;;;;;21.00;5.80;;;;;;;;;;5034621;28;20256;-86
2022/04/02 03:15:13;;;;;;;20.23;10.50;;;;;;;;;;5034607;28;20206;-86
2022/04/02 03:17:40;;;;;;;22.07;8.20;;;;;;;;;;5034303;28;20297;-87
2022/04/02 03:20:09;;;;;;;16.20;7.10;;;;;;;;;;5034175;28;20293;-86
2022/04/02 03:22:39;;;;;;;16.90;6.10;;;;;;;;;;5034552;28;20194;-87
2022/04/02 03:25:08;;;;;;;19.70;6.50;;;;;;;;;;5034242;28;20211;-87
2022/04/02 03:27:35;;;;;;;13.43;5.60;;;;;;;;;;5033965;28;20195;-86
2022/04/02 03:30:03;;;;;;;23.03;7.27;;;;;;;;;;5034298;28;20313;-86
2022/04/02 03:32:30;;;;;;;19.23;6.47;;;;;;;;;;5033639;28;20201;-86
2022/04/02 03:34:57;;;;;;;18.57;6.00;;;;;;;;;;5033397;28;20594;-86
2022/04/02 03:37:25;;;;;;;23.87;5.53;;;;;;;;;;5014890;28;20282;-87
2022/04/02 03:39:55;;;;;;;18.97;5.70;;;;;;;;;;5014309;28;20199;-87
2022/04/02 03:42:22;;;;;;;16.17;5.60;;;;;;;;;;5014649;28;20578;-88
2022/04/02 03:44:49;;;;;;;15.97;5.00;;;;;;;;;;5014367;28;20199;-87
2022/04/02 03:47:22;;;;;;;17.10;5.10;;;;;;;;;;5014094;28;20684;-87
2022/04/02 03:49:50;;;;;;;19.87;6.23;;;;;;;;;;5014272;28;20203;-88
2022/04/02 03:52:17;;;;;;;19.10;7.67;;;;;;;;;;5013974;28;20290;-87
2022/04/02 03:54:44;;;;;;;17.87;5.93;;;;;;;;;;5014160;28;20191;-86
2022/04/02 03:57:14;;;;;;;19.30;6.33;;;;;;;;;;5013811;28;20210;-86
2022/04/02 03:59:42;;;;;;;15.40;5.60;;;;;;;;;;5014051;28;20592;-85
2022/04/02 04:02:10;;;;;;;19.30;6.93;;;;;;;;;;5013346;28;20286;-85
2022/04/02 04:04:38;;;;;;;14.73;6.23;;;;;;;;;;5013204;28;20207;-84
2022/04/02 04:07:06;;;;;;;23.93;16.60;;;;;;;;;;5013205;28;20196;-85
2022/04/02 04:09:33;;;;;;;33.70;15.13;;;;;;;;;;5013232;28;20647;-84
2022/04/02 04:12:01;;;;;;;51.80;23.47;;;;;;;;;;5012974;28;20195;-85
2022/04/02 04:14:30;;;;;;;17.17;7.93;;;;;;;;;;5013127;28;20196;-85
2022/04/02 04:16:57;;;;;;;26.40;13.77;;;;;;;;;;5013136;28;20239;-85
2022/04/02 04:19:24;;;;;;;21.63;10.80;;;;;;;;;;5012851;28;20203;-85
2022/04/02 04:21:53;;;;;;;12.00;5.57;;;;;;;;;;5012875;28;20668;-85
2022/04/02 04:24:20;;;;;;;9.57;4.00;;;;;;;;;;5012771;28;20203;-86
2022/04/02 04:26:47;;;;;;;9.53;4.40;;;;;;;;;;5012967;28;20204;-85
2022/04/02 04:29:14;;;;;;;18.87;8.90;;;;;;;;;;5012789;28;20196;-84
2022/04/02 04:31:43;;;;;;;13.17;4.93;;;;;;;;;;5012866;28;20238;-85
2022/04/02 04:34:11;;;;;;;10.90;3.67;;;;;;;;;;5012195;28;20200;-85
2022/04/02 04:36:38;;;;;;;22.40;12.43;;;;;;;;;;5013019;28;20214;-85
2022/04/02 04:41:47;;;;;;;111.73;80.70;;;;;;;;;;5018669;28;20634;-86
2022/04/02 04:44:14;;;;;;;104.83;75.87;;;;;;;;;;5012602;28;20679;-86
2022/04/02 04:46:43;;;;;;;77.33;51.07;;;;;;;;;;5013028;28;20203;-85
2022/04/02 04:49:10;;;;;;;16.23;9.93;;;;;;;;;;5012680;28;20195;-85
2022/04/02 04:51:38;;;;;;;15.27;9.60;;;;;;;;;;5012575;28;20219;-85
2022/04/02 04:54:05;;;;;;;21.70;15.53;;;;;;;;;;5012474;28;20269;-86
2022/04/02 04:56:33;;;;;;;51.83;38.40;;;;;;;;;;5012605;28;20338;-85
2022/04/02 04:59:00;;;;;;;19.43;11.10;;;;;;;;;;5012521;28;20199;-85
2022/04/02 05:01:28;;;;;;;7.57;3.77;;;;;;;;;;5012439;28;20745;-85
2022/04/02 05:03:56;;;;;;;11.40;6.40;;;;;;;;;;5012599;28;20606;-85
2022/04/02 05:06:24;;;;;;;15.63;9.83;;;;;;;;;;5012646;28;20597;-85
2022/04/02 05:08:51;;;;;;;16.60;10.70;;;;;;;;;;5012484;28;20197;-85
2022/04/02 05:11:18;;;;;;;7.13;4.13;;;;;;;;;;5012431;28;20311;-85
2022/04/02 05:13:45;;;;;;;15.27;7.80;;;;;;;;;;5012376;28;20206;-85
2022/04/02 05:16:13;;;;;;;6.90;4.10;;;;;;;;;;5012138;28;20298;-85
2022/04/02 05:18:40;;;;;;;13.83;7.73;;;;;;;;;;5012437;28;20563;-85
2022/04/02 05:21:09;;;;;;;20.60;10.27;;;;;;;;;;5012245;28;20199;-85
2022/04/02 05:23:36;;;;;;;22.33;14.13;;;;;;;;;;5012576;28;20204;-86
2022/04/02 05:26:03;;;;;;;18.57;11.67;;;;;;;;;;5012130;28;20210;-85
2022/04/02 05:28:31;;;;;;;26.50;17.83;;;;;;;;;;5012076;28;20201;-85
2022/04/02 05:30:58;;;;;;;7.57;4.17;;;;;;;;;;5012063;28;20262;-85
2022/04/02 05:33:25;;;;;;;11.07;6.20;;;;;;;;;;5012255;28;20196;-85
2022/04/02 05:35:52;;;;;;;7.07;3.67;;;;;;;;;;5011878;28;20326;-85
2022/04/02 05:38:21;;;;;;;5.43;4.03;;;;;;;;;;5011966;28;20207;-86
2022/04/02 05:40:48;;;;;;;9.00;6.43;;;;;;;;;;5011858;28;20686;-85
2022/04/02 05:43:15;;;;;;;5.30;4.03;;;;;;;;;;5012089;28;20278;-85
2022/04/02 05:45:42;;;;;;;3.57;2.80;;;;;;;;;;5012184;28;20282;-85
2022/04/02 05:48:10;;;;;;;6.10;4.10;;;;;;;;;;5011782;28;20231;-85
2022/04/02 05:50:37;;;;;;;5.27;2.50;;;;;;;;;;5011546;28;20314;-85
2022/04/02 05:53:04;;;;;;;4.07;1.97;;;;;;;;;;5011915;28;20195;-85
2022/04/02 05:55:33;;;;;;;5.53;2.50;;;;;;;;;;5011780;28;20206;-85
2022/04/02 05:58:00;;;;;;;6.10;3.83;;;;;;;;;;5014904;28;20203;-84
2022/04/02 06:00:28;;;;;;;7.83;3.60;;;;;;;;;;5015603;28;20195;-84
2022/04/02 06:02:55;;;;;;;4.63;2.73;;;;;;;;;;5015628;28;20199;-84
2022/04/02 06:05:23;;;;;;;5.53;2.63;;;;;;;;;;5015208;28;20292;-84
2022/04/02 06:07:50;;;;;;;4.50;1.60;;;;;;;;;;4996184;28;20204;-85
2022/04/02 06:10:17;;;;;;;2.37;1.60;;;;;;;;;;4995734;28;20688;-85
2022/04/02 06:12:47;;;;;;;2.63;2.40;;;;;;;;;;4995464;28;20197;-84
2022/04/02 06:15:15;;;;;;;5.97;2.30;;;;;;;;;;4995739;28;20605;-85
2022/04/02 06:17:42;;;;;;;5.23;3.10;;;;;;;;;;4996069;28;20204;-85
2022/04/02 06:20:10;;;;;;;3.73;2.03;;;;;;;;;;4995925;28;20586;-84
2022/04/02 06:22:37;;;;;;;7.83;4.93;;;;;;;;;;4996007;28;20200;-85
2022/04/02 06:25:11;;;;;;;5.20;2.90;;;;;;;;;;4995286;28;20199;-85
2022/04/02 06:27:42;;;;;;;3.67;1.37;;;;;;;;;;4995463;28;20198;-84
2022/04/02 06:30:15;;;;;;;3.53;1.70;;;;;;;;;;4995337;28;20204;-84
2022/04/02 06:32:42;;;;;;;3.30;2.57;;;;;;;;;;4995774;28;20192;-84
2022/04/02 06:35:10;;;;;;;3.27;1.67;;;;;;;;;;4994919;28;20247;-84
2022/04/02 06:37:38;;;;;;;3.20;2.00;;;;;;;;;;4995586;28;20231;-84
2022/04/02 06:40:09;;;;;;;3.10;1.60;;;;;;;;;;4995565;28;20200;-84
2022/04/02 06:42:37;;;;;;;4.03;1.80;;;;;;;;;;4995593;28;20660;-84
2022/04/02 06:45:05;;;;;;;2.83;2.23;;;;;;;;;;4994854;28;20291;-85
2022/04/02 06:47:34;;;;;;;2.27;1.40;;;;;;;;;;4995148;28;20196;-85
2022/04/02 06:50:04;;;;;;;3.37;1.23;;;;;;;;;;4995302;28;20266;-85
2022/04/02 06:52:32;;;;;;;6.27;1.50;;;;;;;;;;4995133;28;20295;-85
2022/04/02 06:54:59;;;;;;;1.50;1.30;;;;;;;;;;4995487;28;20586;-85
2022/04/02 06:57:27;;;;;;;7.70;1.77;;;;;;;;;;4995195;28;20598;-85
2022/04/02 06:59:54;;;;;;;3.03;1.47;;;;;;;;;;4995277;28;20257;-86
2022/04/02 07:02:22;;;;;;;1.97;1.50;;;;;;;;;;4998353;28;20300;-86
2022/04/02 07:04:50;;;;;;;2.13;1.20;;;;;;;;;;4994885;28;20207;-86
2022/04/02 07:07:19;;;;;;;1.00;1.00;;;;;;;;;;4994958;28;20203;-86
2022/04/02 07:09:47;;;;;;;2.40;1.30;;;;;;;;;;4994884;28;20201;-86
2022/04/02 07:12:14;;;;;;;7.70;2.37;;;;;;;;;;4994759;28;20259;-85
2022/04/02 07:14:41;;;;;;;5.53;3.63;;;;;;;;;;4994833;28;20203;-86
2022/04/02 07:17:08;;;;;;;2.73;1.43;;;;;;;;;;4995013;28;20557;-87
2022/04/02 07:19:38;;;;;;;4.23;2.27;;;;;;;;;;4994671;28;20239;-86
2022/04/02 07:22:11;;;;;;;3.27;1.60;;;;;;;;;;4994794;28;20208;-86
2022/04/02 07:24:39;;;;;;;4.67;1.67;;;;;;;;;;4995222;28;20192;-85
2022/04/02 07:27:07;;;;;;;2.37;2.17;;;;;;;;;;4994688;28;20196;-86
2022/04/02 07:29:35;;;;;;;3.40;1.43;;;;;;;;;;4994527;28;20200;-86
2022/04/02 07:32:02;;;;;;;3.50;1.37;;;;;;;;;;4994557;28;20220;-86
2022/04/02 07:34:30;;;;;;;4.00;1.80;;;;;;;;;;4994546;28;20228;-86
2022/04/02 07:37:05;;;;;;;2.60;1.50;;;;;;;;;;4994838;28;20267;-85
2022/04/02 07:39:40;;;;;;;1.50;1.10;;;;;;;;;;4994336;28;20204;-86
2022/04/02 07:42:11;;;;;;;2.27;1.67;;;;;;;;;;4994439;28;20267;-86
2022/04/02 07:44:47;;;;;;;2.40;1.20;;;;;;;;;;4994342;28;20184;-86
2022/04/02 07:47:15;;;;;;;1.73;0.93;;;;;;;;;;4994281;28;20645;-85
2022/04/02 07:49:47;;;;;;;1.27;1.13;;;;;;;;;;4994304;28;20679;-86
2022/04/02 07:52:14;;;;;;;2.33;1.00;;;;;;;;;;4994209;28;20219;-87
2022/04/02 07:54:44;;;;;;;1.23;1.03;;;;;;;;;;4994271;28;20207;-87
2022/04/02 07:57:13;;;;;;;2.70;1.53;;;;;;;;;;4993588;28;20204;-86
2022/04/02 07:59:43;;;;;;;1.50;1.40;;;;;;;;;;4994161;28;20748;-87
2022/04/02 08:04:52;;;;;;;2.10;1.30;;;;;;;;;;4994532;28;20200;-86
2022/04/02 08:07:19;;;;;;;0.97;0.93;;;;;;;;;;4994314;28;20578;-87
2022/04/02 08:09:48;;;;;;;13.30;7.90;;;;;;;;;;4994189;28;20299;-87
2022/04/02 08:12:16;;;;;;;1.30;1.20;;;;;;;;;;4993878;28;20228;-87
2022/04/02 08:14:43;;;;;;;1.93;1.40;;;;;;;;;;4993984;28;20204;-87
2022/04/02 08:17:10;;;;;;;5.90;1.63;;;;;;;;;;4993779;28;20243;-86
2022/04/02 08:19:38;;;;;;;6.60;1.50;;;;;;;;;;4993638;28;20204;-87
2022/04/02 08:22:06;;;;;;;1.20;1.00;;;;;;;;;;4993772;28;20205;-87
2022/04/02 08:24:33;;;;;;;2.20;1.30;;;;;;;;;;4996601;28;20204;-87
2022/04/02 08:27:04;;;;;;;1.13;1.10;;;;;;;;;;4993886;28;20200;-88
2022/04/02 08:29:49;;;;;;;1.03;0.90;;;;;;;;;;4993904;28;20189;-87
2022/04/02 08:32:27;;;;;;;0.90;0.90;;;;;;;;;;4994088;28;20652;-87
2022/04/02 08:35:06;;;;;;;2.37;1.07;;;;;;;;;;4993419;28;20247;-87
2022/04/02 08:38:00;;;;;;;1.03;1.03;;;;;;;;;;4993969;28;20276;-88
2022/04/02 08:40:42;;;;;;;1.27;1.17;;;;;;;;;;4990248;28;20218;-86
2022/04/02 08:43:44;;;;;;;5.33;1.20;;;;;;;;;;4993595;28;20223;-87
2022/04/02 08:46:30;;;;;;;0.93;0.93;;;;;;;;;;4993546;28;20188;-86
2022/04/02 08:48:59;;;;;;;1.47;1.00;;;;;;;;;;4993702;28;20189;-87
2022/04/02 08:51:41;;;;;;;1.67;1.47;;;;;;;;;;4993434;28;20295;-87
2022/04/02 08:54:21;;;;;;;2.43;1.40;;;;;;;;;;4992919;28;20249;-87
2022/04/02 08:56:49;;;;;;;1.30;1.10;;;;;;;;;;4993538;28;20560;-87
2022/04/02 08:59:38;;;;;;;1.27;0.90;;;;;;;;;;5001827;28;20207;-86
2022/04/02 09:02:35;;;;;;;2.07;1.10;;;;;;;;;;4993632;28;20193;-87
2022/04/02 09:05:12;;;;;;;1.20;1.03;;;;;;;;;;4987865;28;20726;-87
2022/04/02 09:08:05;;;;;;;2.70;1.27;;;;;;;;;;4993207;28;20671;-87
2022/04/02 09:10:47;;;;;;;2.00;1.00;;;;;;;;;;4993534;28;20210;-87
2022/04/02 09:13:33;;;;;;;1.30;1.20;;;;;;;;;;4992862;28;20216;-87
2022/04/02 09:16:04;;;;;;;5.30;1.10;;;;;;;;;;4993104;28;20187;-87
2022/04/02 09:18:39;;;;;;;2.30;1.10;;;;;;;;;;4993265;28;20717;-87
2022/04/02 09:21:29;;;;;;;4.37;1.37;;;;;;;;;;4993230;28;20618;-87
2022/04/02 09:24:04;;;;;;;1.03;1.03;;;;;;;;;;4992908;28;20188;-87
2022/04/02 09:27:09;;;;;;;4.20;1.50;;;;;;;;;;4993267;28;20575;-86
2022/04/02 09:29:44;;;;;;;1.80;1.17;;;;;;;;;;4992869;28;20195;-87
2022/04/02 09:32:50;;;;;;;1.13;1.03;;;;;;;;;;4994485;28;20214;-86
2022/04/02 09:35:42;;;;;;;1.77;0.93;;;;;;;;;;4996951;28;20238;-87
2022/04/02 09:38:48;;;;;;;4.17;1.30;;;;;;;;;;4997073;28;20199;-87
2022/04/02 09:41:28;;;;;;;1.37;1.27;;;;;;;;;;4988320;28;20233;-86
2022/04/02 09:44:34;;;;;;;1.60;1.23;;;;;;;;;;4996938;28;20282;-86
2022/04/02 09:47:02;;;;;;;2.83;1.10;;;;;;;;;;4993259;28;20290;-86
2022/04/02 09:49:36;;;;;;;1.07;1.07;;;;;;;;;;4996569;28;20291;-86
2022/04/02 09:52:06;;;;;;;1.20;1.00;;;;;;;;;;4996405;28;20262;-87
2022/04/02 09:54:39;;;;;;;3.67;2.50;;;;;;;;;;4996539;28;20231;-86
2022/04/02 09:57:09;;;;;;;4.03;1.80;;;;;;;;;;4996403;28;20188;-83
2022/04/02 09:59:52;;;;;;;4.37;3.97;;;;;;;;;;4996006;28;20189;-83
2022/04/02 10:02:35;;;;;;;1.73;1.33;;;;;;;;;;4996107;28;20180;-84
2022/04/02 10:05:07;;;;;;;1.80;1.70;;;;;;;;;;4995585;28;20196;-82
2022/04/02 10:07:50;;;;;;;10.53;6.53;;;;;;;;;;4996041;28;20192;-83
2022/04/02 10:10:19;;;;;;;5.10;3.53;;;;;;;;;;4995717;28;20188;-83
2022/04/02 10:12:47;;;;;;;5.70;4.50;;;;;;;;;;4995925;28;20247;-83
2022/04/02 10:15:15;;;;;;;1.80;1.13;;;;;;;;;;4995995;28;20632;-83
2022/04/02 10:17:43;;;;;;;3.57;3.27;;;;;;;;;;4995865;28;20200;-83
2022/04/02 10:20:14;;;;;;;3.90;3.43;;;;;;;;;;4995556;28;20200;-83
2022/04/02 10:22:45;;;;;;;4.30;3.90;;;;;;;;;;4995611;28;20188;-83
2022/04/02 10:25:14;;;;;;;2.73;1.37;;;;;;;;;;4995485;28;20195;-83
2022/04/02 10:27:42;;;;;;;10.40;9.33;;;;;;;;;;4995879;28;20226;-83
2022/04/02 10:30:11;;;;;;;1.43;1.10;;;;;;;;;;4995775;28;20204;-82
2022/04/02 10:32:54;;;;;;;2.60;1.30;;;;;;;;;;4995163;28;20641;-82
2022/04/02 10:35:23;;;;;;;1.70;1.60;;;;;;;;;;4995125;28;20236;-82
2022/04/02 10:38:08;;;;;;;2.60;2.40;;;;;;;;;;4995666;28;20590;-82
2022/04/02 10:40:43;;;;;;;1.17;1.07;;;;;;;;;;4994185;28;20705;-82
2022/04/02 10:43:18;;;;;;;1.30;1.20;;;;;;;;;;4994887;28;20752;-83
2022/04/02 10:45:45;;;;;;;3.07;2.50;;;;;;;;;;4995132;28;20188;-83
2022/04/02 10:48:13;;;;;;;1.80;1.40;;;;;;;;;;4995253;28;20210;-83
2022/04/02 10:50:43;;;;;;;2.67;1.27;;;;;;;;;;4994962;28;20589;-82
2022/04/02 10:53:12;;;;;;;1.60;1.50;;;;;;;;;;4995035;28;20235;-83
2022/04/02 10:55:45;;;;;;;2.60;1.03;;;;;;;;;;4994907;28;20591;-82
2022/04/02 10:58:13;;;;;;;2.53;0.90;;;;;;;;;;4995377;28;20250;-82
2022/04/02 11:00:45;;;;;;;3.53;1.53;;;;;;;;;;4994849;28;20219;-82
2022/04/02 11:03:25;;;;;;;1.23;1.10;;;;;;;;;;5006486;28;20196;-82
2022/04/02 11:05:52;;;;;;;0.90;0.90;;;;;;;;;;5011814;28;20595;-82
2022/04/02 11:08:22;;;;;;;1.20;1.13;;;;;;;;;;5014026;28;20218;-82
2022/04/02 11:10:50;;;;;;;0.77;0.77;;;;;;;;;;5011961;28;20250;-82
2022/04/02 11:13:29;;;;;;;1.40;1.00;;;;;;;;;;5013793;28;20227;-82
2022/04/02 11:15:57;;;;;;;1.20;1.10;;;;;;;;;;5011516;28;20195;-82
2022/04/02 11:18:24;;;;;;;1.17;1.03;;;;;;;;;;5014010;28;20195;-82
2022/04/02 11:20:52;;;;;;;1.90;1.80;;;;;;;;;;5014350;28;20585;-82
2022/04/02 11:23:33;;;;;;;1.03;1.00;;;;;;;;;;5014166;28;20199;-82
2022/04/02 11:26:04;;;;;;;0.80;0.80;;;;;;;;;;5014042;28;20188;-81
2022/04/02 11:28:46;;;;;;;1.00;1.00;;;;;;;;;;5013782;28;20645;-82
2022/04/02 11:31:14;;;;;;;1.10;1.00;;;;;;;;;;5014085;28;20287;-82
2022/04/02 11:33:51;;;;;;;26.67;12.60;;;;;;;;;;5012584;28;20310;-81
2022/04/02 11:36:23;;;;;;;5.87;4.43;;;;;;;;;;5012703;28;20707;-81
2022/04/02 11:38:54;;;;;;;7.47;5.90;;;;;;;;;;5012525;28;20198;-82
2022/04/02 11:41:23;;;;;;;1.57;1.13;;;;;;;;;;5012288;28;20187;-82
2022/04/02 11:43:55;;;;;;;3.10;2.60;;;;;;;;;;5012326;28;20698;-83
2022/04/02 11:46:23;;;;;;;8.50;5.00;;;;;;;;;;5012021;28;20184;-82
2022/04/02 11:48:52;;;;;;;5.00;3.83;;;;;;;;;;5012328;28;20206;-81
2022/04/02 11:51:21;;;;;;;2.50;1.73;;;;;;;;;;5012519;28;20196;-81
2022/04/02 11:53:48;;;;;;;4.73;3.07;;;;;;;;;;5012216;28;20249;-81
2022/04/02 11:56:29;;;;;;;3.80;3.00;;;;;;;;;;5012173;28;20230;-81
2022/04/02 11:58:57;;;;;;;1.37;1.00;;;;;;;;;;5012125;28;20188;-82
2022/04/02 12:01:25;;;;;;;1.00;1.00;;;;;;;;;;5012458;28;20205;-81
2022/04/02 12:04:12;;;;;;;421.90;181.00;;;;;;;;;;5012127;28;20286;-82
2022/04/02 12:06:39;;;;;;;3.93;2.57;;;;;;;;;;5012052;28;20188;-82
2022/04/02 12:09:13;;;;;;;1.60;1.10;;;;;;;;;;5012382;28;20203;-82
2022/04/02 12:11:46;;;;;;;1.40;1.30;;;;;;;;;;5012552;28;20184;-81
2022/04/02 12:14:27;;;;;;;2.40;2.20;;;;;;;;;;5011519;28;20245;-82
2022/04/02 12:16:59;;;;;;;1.70;1.57;;;;;;;;;;5012087;28;20191;-81
2022/04/02 12:19:37;;;;;;;3.57;1.77;;;;;;;;;;5016721;28;20251;-82
2022/04/02 12:22:20;;;;;;;3.40;2.63;;;;;;;;;;5017747;28;20294;-82
2022/04/02 12:24:49;;;;;;;2.77;1.00;;;;;;;;;;5011815;28;20278;-82
2022/04/02 12:27:19;;;;;;;2.70;1.87;;;;;;;;;;5011365;28;20218;-82
2022/04/02 12:29:47;;;;;;;2.07;1.80;;;;;;;;;;5011678;28;20195;-82
2022/04/02 12:32:18;;;;;;;1.83;1.67;;;;;;;;;;5007560;28;20206;-82
2022/04/02 12:34:45;;;;;;;2.97;2.03;;;;;;;;;;5000129;28;20357;-82
2022/04/02 12:37:13;;;;;;;4.43;3.03;;;;;;;;;;5011565;28;20711;-83
2022/04/02 12:39:42;;;;;;;2.43;2.23;;;;;;;;;;5011397;28;20676;-82
2022/04/02 12:42:09;;;;;;;10.13;3.50;;;;;;;;;;5011871;28;20207;-83
2022/04/02 12:44:38;;;;;;;2.60;1.70;;;;;;;;;;5001480;28;20254;-82
2022/04/02 12:47:12;;;;;;;11.67;7.90;;;;;;;;;;4992215;28;20196;-82
2022/04/02 12:49:39;;;;;;;6.07;4.47;;;;;;;;;;4991684;28;20192;-82
2022/04/02 12:52:14;;;;;;;5.43;3.70;;;;;;;;;;5004929;28;20211;-82
2022/04/02 12:54:50;;;;;;;1.80;1.70;;;;;;;;;;5005716;28;20290;-82
2022/04/02 12:57:18;;;;;;;2.00;1.70;;;;;;;;;;4991664;28;20286;-82
2022/04/02 12:59:53;;;;;;;3.60;2.87;;;;;;;;;;4992009;28;20626;-82
2022/04/02 13:02:23;;;;;;;7.10;4.33;;;;;;;;;;4991795;28;20229;-82
2022/04/02 13:04:53;;;;;;;3.30;2.90;;;;;;;;;;4991326;28;20198;-82
2022/04/02 13:07:21;;;;;;;6.63;3.37;;;;;;;;;;4991526;28;20578;-83
2022/04/02 13:09:50;;;;;;;5.87;3.87;;;;;;;;;;4991296;28;20588;-82
2022/04/02 13:12:21;;;;;;;6.80;4.03;;;;;;;;;;4991423;28;20209;-82
2022/04/02 13:14:55;;;;;;;5.07;3.37;;;;;;;;;;4991363;28;20285;-82
2022/04/02 13:17:23;;;;;;;13.10;6.27;;;;;;;;;;4991426;28;20185;-82
2022/04/02 13:22:47;;;;;;;6.73;4.50;;;;;;;;;;4991602;28;20680;-82
2022/04/02 13:25:14;;;;;;;9.73;7.33;;;;;;;;;;4991136;28;20220;-82
2022/04/02 13:28:10;;;;;;;8.17;3.70;;;;;;;;;;4991207;28;20214;-82
2022/04/02 13:30:40;;;;;;;6.13;3.40;;;;;;;;;;4991493;28;20738;-82
2022/04/02 13:33:50;;;;;;;8.20;5.67;;;;;;;;;;4991370;28;20310;-82
2022/04/02 13:36:26;;;;;;;2.97;1.53;;;;;;;;;;4990791;28;20732;-82
2022/04/02 13:39:00;;;;;;;4.67;2.53;;;;;;;;;;4991153;28;20196;-83
2022/04/02 13:41:30;;;;;;;2.30;1.07;;;;;;;;;;4991642;28;20189;-81
2022/04/02 13:43:58;;;;;;;1.10;1.00;;;;;;;;;;4991087;28;20720;-82
2022/04/02 13:46:29;;;;;;;2.03;1.07;;;;;;;;;;4991256;28;20291;-82
2022/04/02 13:49:00;;;;;;;1.50;0.90;;;;;;;;;;4991023;28;20326;-82
2022/04/02 13:51:39;;;;;;;1.23;1.13;;;;;;;;;;4991266;28;20274;-82
2022/04/02 13:54:08;;;;;;;4.13;1.27;;;;;;;;;;4991115;28;20215;-82
2022/04/02 13:56:37;;;;;;;1.40;1.17;;;;;;;;;;4991001;28;20205;-83
2022/04/02 13:59:09;;;;;;;2.40;1.50;;;;;;;;;;4991031;28;20205;-82
2022/04/02 14:01:40;;;;;;;4.03;1.50;;;;;;;;;;4991303;28;20200;-82
2022/04/02 14:04:12;;;;;;;2.20;1.37;;;;;;;;;;4990762;28;20725;-82
2022/04/02 14:06:44;;;;;;;2.57;1.17;;;;;;;;;;4991171;28;20192;-82
2022/04/02 14:09:13;;;;;;;1.70;1.20;;;;;;;;;;4990958;28;20196;-82
2022/04/02 14:11:43;;;;;;;3.37;1.10;;;;;;;;;;4990916;28;20207;-82
2022/04/02 14:14:22;;;;;;;2.50;1.17;;;;;;;;;;4990508;28;20322;-81
2022/04/02 14:17:05;;;;;;;1.30;1.20;;;;;;;;;;4990962;28;20242;-82
2022/04/02 14:19:46;;;;;;;1.33;1.23;;;;;;;;;;4995500;28;20291;-86
2022/04/02 14:22:18;;;;;;;2.70;1.30;;;;;;;;;;4996165;28;20569;-85
2022/04/02 14:24:55;;;;;;;1.30;1.20;;;;;;;;;;4995798;28;20215;-86
2022/04/02 14:27:55;;;;;;;2.60;1.40;;;;;;;;;;4996076;28;20278;-86
2022/04/02 14:30:36;;;;;;;2.47;1.27;;;;;;;;;;4995939;28;20584;-79
2022/04/02 14:33:40;;;;;;;3.20;1.40;;;;;;;;;;4995824;28;20211;-81
2022/04/02 14:36:53;;;;;;;3.97;1.47;;;;;;;;;;4994889;28;20786;-80
2022/04/02 14:39:46;;;;;;;2.23;2.03;;;;;;;;;;4995796;28;20199;-81
2022/04/02 14:42:21;;;;;;;4.47;4.07;;;;;;;;;;4995148;28;20191;-81
2022/04/02 14:45:24;;;;;;;2.50;2.03;;;;;;;;;;4995481;28;20189;-82
2022/04/02 14:48:23;;;;;;;1.70;1.60;;;;;;;;;;4995473;28;20201;-82
2022/04/02 14:51:19;;;;;;;1.57;1.40;;;;;;;;;;4995354;28;20223;-82
2022/04/02 14:54:35;;;;;;;3.40;1.97;;;;;;;;;;4994671;28;20224;-82
2022/04/02 14:57:18;;;;;;;3.83;3.33;;;;;;;;;;4995070;28;20281;-82
2022/04/02 15:00:16;;;;;;;2.40;2.13;;;;;;;;;;4994897;28;20197;-82
2022/04/02 15:03:12;;;;;;;4.60;2.60;;;;;;;;;;4994942;28;20196;-82
2022/04/02 15:06:09;;;;;;;5.17;2.03;;;;;;;;;;4994409;28;20205;-82
2022/04/02 15:09:20;;;;;;;1.00;1.00;;;;;;;;;;4994839;28;20599;-83
2022/04/02 15:11:51;;;;;;;2.60;1.63;;;;;;;;;;4994773;28;20186;-83
2022/04/02 15:14:25;;;;;;;1.83;1.70;;;;;;;;;;4994266;28;20227;-83
2022/04/02 15:16:53;;;;;;;0.90;0.90;;;;;;;;;;4994953;28;20285;-83
2022/04/02 15:19:26;;;;;;;1.57;1.00;;;;;;;;;;4994407;28;20193;-82